createdAt,value
2019-02-07T00:00:43.689Z,0.00
2019-02-07T00:01:50.300Z,0.00
2019-02-07T00:02:54.691Z,0.00
2019-02-07T00:04:00.889Z,0.00
2019-02-07T00:05:05.738Z,0.00
2019-02-07T00:06:11.269Z,0.00
2019-02-07T00:07:16.710Z,0.00
2019-02-07T00:08:23.233Z,0.00
2019-02-07T00:09:27.737Z,0.00
2019-02-07T00:10:33.252Z,0.00
2019-02-07T00:11:38.749Z,0.00
2019-02-07T00:12:44.333Z,0.00
2019-02-07T00:13:49.755Z,0.00
2019-02-07T00:14:56.254Z,0.00
2019-02-07T00:16:00.751Z,0.00
2019-02-07T00:17:06.325Z,0.00
2019-02-07T00:18:11.872Z,0.00
2019-02-07T00:19:17.275Z,0.00
2019-02-07T00:20:22.821Z,0.00
2019-02-07T00:21:29.323Z,0.00
2019-02-07T00:22:34.513Z,0.00
2019-02-07T00:23:39.345Z,0.00
2019-02-07T00:24:44.849Z,0.00
2019-02-07T00:25:51.209Z,0.00
2019-02-07T00:26:55.875Z,0.00
2019-02-07T00:28:02.383Z,0.00
2019-02-07T00:29:06.875Z,0.00
2019-02-07T00:30:12.392Z,0.00
2019-02-07T00:31:17.875Z,0.00
2019-02-07T00:32:23.401Z,0.00
2019-02-07T00:33:28.893Z,0.00
2019-02-07T00:34:35.444Z,0.00
2019-02-07T00:35:39.926Z,0.00
2019-02-07T00:36:45.434Z,0.00
2019-02-07T00:37:50.909Z,0.00
2019-02-07T00:38:56.445Z,0.00
2019-02-07T00:40:01.952Z,0.00
2019-02-07T00:41:08.469Z,0.00
2019-02-07T00:42:12.963Z,0.00
2019-02-07T00:43:18.469Z,0.00
2019-02-07T00:44:23.977Z,0.00
2019-02-07T00:45:29.506Z,0.00
2019-02-07T00:46:35.007Z,0.00
2019-02-07T00:47:41.510Z,0.00
2019-02-07T00:48:46.019Z,0.00
2019-02-07T00:49:51.499Z,0.00
2019-02-07T00:50:57.034Z,0.00
2019-02-07T00:52:02.546Z,0.00
2019-02-07T00:53:08.054Z,0.00
2019-02-07T00:54:14.567Z,0.00
2019-02-07T00:55:19.107Z,0.00
2019-02-07T00:56:24.588Z,0.00
2019-02-07T00:57:30.069Z,0.00
2019-02-07T00:58:35.580Z,0.00
2019-02-07T00:59:41.093Z,0.00
2019-02-07T01:00:47.630Z,0.00
2019-02-07T01:01:52.109Z,0.00
2019-02-07T01:02:57.608Z,0.00
2019-02-07T01:04:03.145Z,0.00
2019-02-07T01:05:08.622Z,0.00
2019-02-07T01:06:14.138Z,0.00
2019-02-07T01:07:20.646Z,0.00
2019-02-07T01:08:25.144Z,0.00
2019-02-07T01:09:30.678Z,0.00
2019-02-07T01:10:36.220Z,0.00
2019-02-07T01:11:41.686Z,0.00
2019-02-07T01:12:47.178Z,0.00
2019-02-07T01:13:53.669Z,0.00
2019-02-07T01:15:02.011Z,0.00
2019-02-07T01:16:03.716Z,0.00
2019-02-07T01:17:09.203Z,0.00
2019-02-07T01:18:14.706Z,0.00
2019-02-07T01:19:20.236Z,0.00
2019-02-07T01:20:26.737Z,0.00
2019-02-07T01:21:31.225Z,0.00
2019-02-07T01:22:36.695Z,0.00
2019-02-07T01:23:42.228Z,0.00
2019-02-07T01:24:47.757Z,0.00
2019-02-07T01:25:53.264Z,0.00
2019-02-07T01:26:59.771Z,0.00
2019-02-07T01:28:04.284Z,0.00
2019-02-07T01:29:09.794Z,0.00
2019-02-07T01:30:15.312Z,0.00
2019-02-07T01:31:20.802Z,0.00
2019-02-07T01:32:26.320Z,0.00
2019-02-07T01:33:32.843Z,0.00
2019-02-07T01:34:37.342Z,0.00
2019-02-07T01:35:42.867Z,0.00
2019-02-07T01:36:48.435Z,0.00
2019-02-07T01:37:53.823Z,0.00
2019-02-07T01:38:59.382Z,0.00
2019-02-07T01:40:05.877Z,0.00
2019-02-07T01:41:10.373Z,0.00
2019-02-07T01:42:15.906Z,0.00
2019-02-07T01:43:21.386Z,0.00
2019-02-07T01:44:26.898Z,0.00
2019-02-07T01:45:32.419Z,0.00
2019-02-07T01:46:38.937Z,0.00
2019-02-07T01:47:43.423Z,0.00
2019-02-07T01:48:48.948Z,0.00
2019-02-07T01:49:54.469Z,0.00
2019-02-07T01:50:59.954Z,0.00
2019-02-07T01:52:05.466Z,0.00
2019-02-07T01:53:11.982Z,0.00
2019-02-07T01:54:16.490Z,0.00
2019-02-07T01:55:22.004Z,0.00
2019-02-07T01:56:27.495Z,0.00
2019-02-07T01:57:32.989Z,0.00
2019-02-07T01:58:38.484Z,0.00
2019-02-07T01:59:45.035Z,0.00
2019-02-07T02:00:49.517Z,0.00
2019-02-07T02:01:55.017Z,0.00
2019-02-07T02:03:00.527Z,0.00
2019-02-07T02:04:06.043Z,0.00
2019-02-07T02:05:11.558Z,0.00
2019-02-07T02:06:18.021Z,0.00
2019-02-07T02:07:22.556Z,0.00
2019-02-07T02:08:28.063Z,0.00
2019-02-07T02:09:33.576Z,0.00
2019-02-07T02:10:39.113Z,0.00
2019-02-07T02:11:44.610Z,0.00
2019-02-07T02:12:51.073Z,0.00
2019-02-07T02:13:55.576Z,0.00
2019-02-07T02:15:01.087Z,0.00
2019-02-07T02:16:06.604Z,0.00
2019-02-07T02:17:12.140Z,0.00
2019-02-07T02:18:17.616Z,0.00
2019-02-07T02:19:24.149Z,0.00
2019-02-07T02:20:28.622Z,0.00
2019-02-07T02:21:34.183Z,0.00
2019-02-07T02:22:39.664Z,0.00
2019-02-07T02:23:45.195Z,0.00
2019-02-07T02:24:50.679Z,0.00
2019-02-07T02:25:57.168Z,0.00
2019-02-07T02:27:01.704Z,0.00
2019-02-07T02:28:07.212Z,0.00
2019-02-07T02:29:12.701Z,0.00
2019-02-07T02:30:18.217Z,0.00
2019-02-07T02:31:23.732Z,0.00
2019-02-07T02:32:30.264Z,0.00
2019-02-07T02:33:34.759Z,0.00
2019-02-07T02:34:40.265Z,0.00
2019-02-07T02:35:45.756Z,0.00
2019-02-07T02:36:51.260Z,0.00
2019-02-07T02:37:56.771Z,0.00
2019-02-07T02:39:03.290Z,0.00
2019-02-07T02:40:07.770Z,0.00
2019-02-07T02:41:13.300Z,0.00
2019-02-07T02:42:18.799Z,0.00
2019-02-07T02:43:24.296Z,0.00
2019-02-07T02:44:29.815Z,0.00
2019-02-07T02:45:37.886Z,0.00
2019-02-07T02:46:40.829Z,0.00
2019-02-07T02:47:46.357Z,0.00
2019-02-07T02:48:51.852Z,0.00
2019-02-07T02:49:57.362Z,0.00
2019-02-07T02:51:02.866Z,0.00
2019-02-07T02:52:09.376Z,0.00
2019-02-07T02:53:13.874Z,0.00
2019-02-07T02:54:19.376Z,0.00
2019-02-07T02:55:24.876Z,0.00
2019-02-07T02:56:30.398Z,0.00
2019-02-07T02:57:35.890Z,0.00
2019-02-07T02:58:42.419Z,0.00
2019-02-07T02:59:46.917Z,0.00
2019-02-07T03:00:52.426Z,0.00
2019-02-07T03:01:57.927Z,0.00
2019-02-07T03:03:03.415Z,0.00
2019-02-07T03:04:08.954Z,0.00
2019-02-07T03:05:15.456Z,0.00
2019-02-07T03:06:19.973Z,0.00
2019-02-07T03:07:25.470Z,0.00
2019-02-07T03:08:30.967Z,0.00
2019-02-07T03:09:36.473Z,0.00
2019-02-07T03:10:41.972Z,0.00
2019-02-07T03:11:48.496Z,0.00
2019-02-07T03:12:53.001Z,0.00
2019-02-07T03:13:58.497Z,0.00
2019-02-07T03:15:04.000Z,0.00
2019-02-07T03:16:09.489Z,0.00
2019-02-07T03:17:15.002Z,0.00
2019-02-07T03:18:21.503Z,0.00
2019-02-07T03:19:26.031Z,0.00
2019-02-07T03:20:31.529Z,0.00
2019-02-07T03:21:37.002Z,0.00
2019-02-07T03:22:42.503Z,0.00
2019-02-07T03:23:48.060Z,0.00
2019-02-07T03:24:54.590Z,0.00
2019-02-07T03:25:59.080Z,0.00
2019-02-07T03:27:04.593Z,0.00
2019-02-07T03:28:10.104Z,0.00
2019-02-07T03:29:15.590Z,0.00
2019-02-07T03:30:21.124Z,0.00
2019-02-07T03:31:27.609Z,0.00
2019-02-07T03:32:32.398Z,0.00
2019-02-07T03:33:37.634Z,0.00
2019-02-07T03:34:43.147Z,0.00
2019-02-07T03:35:48.645Z,0.00
2019-02-07T03:36:54.293Z,0.00
2019-02-07T03:38:00.678Z,0.00
2019-02-07T03:39:05.168Z,0.00
2019-02-07T03:40:10.663Z,0.00
2019-02-07T03:41:16.171Z,0.00
2019-02-07T03:42:21.680Z,0.00
2019-02-07T03:43:27.211Z,0.00
2019-02-07T03:44:33.716Z,0.00
2019-02-07T03:45:38.193Z,0.00
2019-02-07T03:46:43.716Z,0.00
2019-02-07T03:47:49.226Z,0.00
2019-02-07T03:48:54.727Z,0.00
2019-02-07T03:50:00.552Z,0.00
2019-02-07T03:51:06.765Z,0.00
2019-02-07T03:52:11.253Z,0.00
2019-02-07T03:53:16.773Z,0.00
2019-02-07T03:54:22.264Z,0.00
2019-02-07T03:55:27.791Z,0.00
2019-02-07T03:56:33.290Z,0.00
2019-02-07T03:57:39.784Z,0.00
2019-02-07T03:58:44.283Z,0.00
2019-02-07T03:59:49.787Z,0.00
2019-02-07T04:00:55.301Z,0.00
2019-02-07T04:02:00.791Z,0.00
2019-02-07T04:03:06.368Z,0.00
2019-02-07T04:04:12.838Z,0.00
2019-02-07T04:05:17.335Z,0.00
2019-02-07T04:06:22.846Z,0.00
2019-02-07T04:07:28.352Z,0.00
2019-02-07T04:08:33.862Z,0.00
2019-02-07T04:09:39.372Z,0.00
2019-02-07T04:10:45.883Z,0.00
2019-02-07T04:11:50.377Z,0.00
2019-02-07T04:12:55.900Z,0.00
2019-02-07T04:14:01.359Z,0.00
2019-02-07T04:15:06.890Z,0.00
2019-02-07T04:16:15.341Z,0.00
2019-02-07T04:17:18.918Z,0.00
2019-02-07T04:18:23.419Z,0.00
2019-02-07T04:19:28.913Z,0.00
2019-02-07T04:20:34.448Z,0.00
2019-02-07T04:21:39.889Z,0.00
2019-02-07T04:22:45.445Z,0.00
2019-02-07T04:23:51.941Z,0.00
2019-02-07T04:24:56.465Z,0.00
2019-02-07T04:26:01.974Z,0.00
2019-02-07T04:27:07.466Z,0.00
2019-02-07T04:28:12.992Z,0.00
2019-02-07T04:29:18.477Z,0.00
2019-02-07T04:30:25.011Z,0.00
2019-02-07T04:31:29.508Z,0.00
2019-02-07T04:32:35.014Z,0.00
2019-02-07T04:33:40.529Z,0.00
2019-02-07T04:34:46.035Z,0.00
2019-02-07T04:35:51.538Z,0.00
2019-02-07T04:36:58.059Z,0.00
2019-02-07T04:38:02.537Z,0.00
2019-02-07T04:39:08.047Z,0.00
2019-02-07T04:40:13.583Z,0.00
2019-02-07T04:41:19.077Z,0.00
2019-02-07T04:42:24.576Z,0.00
2019-02-07T04:43:31.086Z,0.00
2019-02-07T04:44:35.598Z,0.00
2019-02-07T04:45:41.110Z,0.00
2019-02-07T04:46:46.591Z,0.00
2019-02-07T04:47:52.124Z,0.00
2019-02-07T04:48:57.629Z,0.00
2019-02-07T04:50:04.137Z,0.00
2019-02-07T04:51:08.615Z,0.00
2019-02-07T04:52:14.152Z,0.00
2019-02-07T04:53:19.655Z,0.00
2019-02-07T04:54:25.163Z,0.00
2019-02-07T04:55:30.672Z,0.00
2019-02-07T04:56:37.168Z,0.00
2019-02-07T04:57:41.679Z,0.00
2019-02-07T04:58:47.176Z,0.00
2019-02-07T04:59:52.678Z,0.00
2019-02-07T05:00:58.185Z,0.00
2019-02-07T05:02:03.714Z,0.00
2019-02-07T05:03:10.230Z,0.00
2019-02-07T05:04:14.714Z,0.00
2019-02-07T05:05:20.234Z,0.00
2019-02-07T05:06:25.769Z,0.00
2019-02-07T05:07:31.250Z,0.00
2019-02-07T05:08:36.750Z,0.00
2019-02-07T05:09:43.268Z,0.00
2019-02-07T05:10:47.777Z,0.00
2019-02-07T05:11:53.265Z,0.00
2019-02-07T05:12:58.774Z,0.00
2019-02-07T05:14:04.263Z,0.00
2019-02-07T05:15:09.802Z,0.00
2019-02-07T05:16:16.304Z,0.00
2019-02-07T05:17:20.794Z,0.00
2019-02-07T05:18:26.296Z,0.00
2019-02-07T05:19:31.796Z,0.00
2019-02-07T05:20:37.336Z,0.00
2019-02-07T05:21:42.854Z,20.00
2019-02-07T05:22:49.359Z,24.00
2019-02-07T05:23:53.850Z,24.00
2019-02-07T05:24:59.375Z,20.00
2019-02-07T05:26:04.977Z,20.00
2019-02-07T05:27:10.364Z,20.00
2019-02-07T05:28:15.883Z,20.00
2019-02-07T05:29:22.390Z,20.00
2019-02-07T05:30:26.853Z,20.00
2019-02-07T05:31:32.397Z,20.00
2019-02-07T05:32:37.898Z,16.00
2019-02-07T05:33:43.419Z,16.00
2019-02-07T05:34:48.915Z,16.00
2019-02-07T05:35:55.440Z,20.00
2019-02-07T05:36:59.951Z,20.00
2019-02-07T05:38:05.457Z,20.00
2019-02-07T05:39:10.956Z,20.00
2019-02-07T05:40:16.476Z,20.00
2019-02-07T05:41:21.961Z,20.00
2019-02-07T05:42:28.489Z,20.00
2019-02-07T05:43:32.928Z,20.00
2019-02-07T05:44:38.486Z,20.00
2019-02-07T05:45:43.992Z,20.00
2019-02-07T05:46:51.035Z,20.00
2019-02-07T05:47:55.001Z,20.00
2019-02-07T05:49:01.554Z,20.00
2019-02-07T05:50:06.025Z,20.00
2019-02-07T05:51:11.550Z,20.00
2019-02-07T05:52:17.030Z,20.00
2019-02-07T05:53:22.554Z,20.00
2019-02-07T05:54:28.081Z,20.00
2019-02-07T05:55:34.579Z,20.00
2019-02-07T05:56:39.095Z,16.00
2019-02-07T05:57:44.565Z,16.00
2019-02-07T05:58:50.073Z,16.00
2019-02-07T05:59:55.574Z,16.00
2019-02-07T06:01:01.132Z,16.00
2019-02-07T06:02:07.610Z,16.00
2019-02-07T06:03:12.122Z,16.00
2019-02-07T06:04:17.631Z,16.00
2019-02-07T06:05:23.140Z,16.00
2019-02-07T06:06:28.650Z,16.00
2019-02-07T06:07:34.149Z,16.00
2019-02-07T06:08:40.681Z,16.00
2019-02-07T06:09:45.167Z,16.00
2019-02-07T06:10:50.658Z,16.00
2019-02-07T06:11:56.148Z,16.00
2019-02-07T06:13:01.690Z,16.00
2019-02-07T06:14:07.164Z,16.00
2019-02-07T06:15:14.406Z,16.00
2019-02-07T06:16:18.182Z,16.00
2019-02-07T06:17:23.729Z,16.00
2019-02-07T06:18:29.203Z,16.00
2019-02-07T06:19:34.711Z,16.00
2019-02-07T06:20:40.230Z,16.00
2019-02-07T06:21:48.194Z,16.00
2019-02-07T06:22:51.247Z,16.00
2019-02-07T06:23:56.760Z,16.00
2019-02-07T06:25:02.271Z,16.00
2019-02-07T06:26:07.773Z,16.00
2019-02-07T06:27:13.272Z,16.00
2019-02-07T06:28:19.806Z,16.00
2019-02-07T06:29:24.281Z,16.00
2019-02-07T06:30:29.794Z,16.00
2019-02-07T06:31:35.294Z,0.00
2019-02-07T06:32:40.808Z,0.00
2019-02-07T06:33:46.337Z,0.00
2019-02-07T06:34:52.844Z,0.00
2019-02-07T06:35:57.341Z,0.00
2019-02-07T06:37:02.845Z,0.00
2019-02-07T06:38:08.328Z,0.00
2019-02-07T06:39:13.797Z,0.00
2019-02-07T06:40:19.364Z,0.00
2019-02-07T06:41:25.873Z,0.00
2019-02-07T06:42:30.380Z,0.00
2019-02-07T06:43:35.865Z,0.00
2019-02-07T06:44:41.404Z,0.00
2019-02-07T06:45:46.919Z,0.00
2019-02-07T06:46:52.420Z,0.00
2019-02-07T06:47:58.917Z,0.00
2019-02-07T06:49:03.405Z,0.00
2019-02-07T06:50:08.928Z,0.00
2019-02-07T06:51:14.430Z,0.00
2019-02-07T06:52:19.958Z,4.00
2019-02-07T06:53:25.444Z,4.00
2019-02-07T06:54:31.991Z,0.00
2019-02-07T06:55:36.488Z,0.00
2019-02-07T06:56:41.981Z,0.00
2019-02-07T06:57:47.478Z,4.00
2019-02-07T06:58:55.178Z,4.00
2019-02-07T06:59:58.494Z,4.00
2019-02-07T07:01:05.008Z,8.00
2019-02-07T07:02:09.491Z,8.00
2019-02-07T07:03:15.012Z,8.00
2019-02-07T07:04:20.522Z,8.00
2019-02-07T07:05:26.036Z,8.00
2019-02-07T07:06:31.541Z,12.00
2019-02-07T07:07:38.066Z,12.00
2019-02-07T07:08:42.559Z,16.00
2019-02-07T07:09:48.059Z,16.00
2019-02-07T07:10:53.580Z,16.00
2019-02-07T07:11:59.069Z,16.00
2019-02-07T07:13:04.606Z,16.00
2019-02-07T07:14:11.089Z,20.00
2019-02-07T07:15:15.628Z,20.00
2019-02-07T07:16:21.093Z,24.00
2019-02-07T07:17:27.003Z,24.00
2019-02-07T07:18:32.136Z,28.00
2019-02-07T07:19:37.611Z,32.00
2019-02-07T07:20:44.094Z,36.00
2019-02-07T07:21:48.641Z,36.00
2019-02-07T07:22:54.152Z,32.00
2019-02-07T07:23:59.665Z,36.00
2019-02-07T07:25:05.161Z,36.00
2019-02-07T07:26:10.683Z,36.00
2019-02-07T07:27:17.194Z,32.00
2019-02-07T07:28:21.700Z,36.00
2019-02-07T07:29:27.190Z,44.00
2019-02-07T07:30:32.702Z,44.00
2019-02-07T07:31:38.225Z,48.00
2019-02-07T07:32:43.718Z,48.00
2019-02-07T07:33:50.237Z,48.00
2019-02-07T07:34:54.726Z,48.00
2019-02-07T07:36:00.249Z,44.00
2019-02-07T07:37:05.743Z,40.00
2019-02-07T07:38:11.270Z,36.00
2019-02-07T07:39:16.731Z,40.00
2019-02-07T07:40:23.291Z,52.00
2019-02-07T07:41:27.787Z,60.00
2019-02-07T07:42:33.293Z,68.00
2019-02-07T07:43:38.804Z,72.00
2019-02-07T07:44:44.285Z,76.00
2019-02-07T07:45:49.820Z,76.00
2019-02-07T07:46:56.322Z,84.00
2019-02-07T07:48:00.810Z,80.00
2019-02-07T07:49:06.358Z,84.00
2019-02-07T07:50:11.832Z,96.00
2019-02-07T07:51:17.351Z,112.00
2019-02-07T07:52:22.872Z,112.00
2019-02-07T07:53:29.413Z,108.00
2019-02-07T07:54:33.834Z,108.00
2019-02-07T07:55:39.392Z,108.00
2019-02-07T07:56:44.886Z,100.00
2019-02-07T07:57:50.394Z,84.00
2019-02-07T07:58:55.908Z,60.00
2019-02-07T08:00:02.420Z,44.00
2019-02-07T08:01:06.916Z,52.00
2019-02-07T08:02:12.416Z,60.00
2019-02-07T08:03:17.946Z,88.00
2019-02-07T08:04:23.440Z,100.00
2019-02-07T08:05:28.958Z,100.00
2019-02-07T08:06:35.487Z,88.00
2019-02-07T08:07:39.962Z,96.00
2019-02-07T08:08:45.491Z,108.00
2019-02-07T08:09:50.958Z,128.00
2019-02-07T08:10:56.497Z,132.00
2019-02-07T08:12:02.002Z,136.00
2019-02-07T08:13:08.511Z,132.00
2019-02-07T08:14:12.997Z,132.00
2019-02-07T08:15:18.528Z,140.00
2019-02-07T08:16:24.021Z,148.00
2019-02-07T08:17:29.539Z,156.00
2019-02-07T08:18:35.035Z,164.00
2019-02-07T08:19:41.565Z,184.00
2019-02-07T08:20:46.044Z,176.00
2019-02-07T08:21:51.578Z,136.00
2019-02-07T08:22:57.073Z,120.00
2019-02-07T08:24:02.593Z,116.00
2019-02-07T08:25:08.095Z,136.00
2019-02-07T08:26:14.634Z,124.00
2019-02-07T08:27:19.100Z,152.00
2019-02-07T08:28:26.636Z,148.00
2019-02-07T08:29:30.138Z,144.00
2019-02-07T08:30:36.749Z,144.00
2019-02-07T08:31:41.121Z,140.00
2019-02-07T08:32:47.629Z,140.00
2019-02-07T08:33:52.161Z,156.00
2019-02-07T08:34:57.636Z,140.00
2019-02-07T08:36:03.175Z,116.00
2019-02-07T08:37:08.683Z,108.00
2019-02-07T08:38:14.192Z,96.00
2019-02-07T08:39:20.702Z,96.00
2019-02-07T08:40:25.192Z,92.00
2019-02-07T08:41:30.735Z,88.00
2019-02-07T08:42:36.213Z,104.00
2019-02-07T08:43:41.710Z,112.00
2019-02-07T08:44:47.230Z,120.00
2019-02-07T08:45:53.759Z,144.00
2019-02-07T08:46:58.238Z,124.00
2019-02-07T08:48:04.080Z,108.00
2019-02-07T08:49:09.268Z,100.00
2019-02-07T08:50:14.808Z,84.00
2019-02-07T08:51:20.286Z,76.00
2019-02-07T08:52:26.810Z,72.00
2019-02-07T08:53:31.282Z,64.00
2019-02-07T08:54:36.834Z,56.00
2019-02-07T08:55:42.322Z,60.00
2019-02-07T08:56:47.795Z,68.00
2019-02-07T08:57:53.341Z,76.00
2019-02-07T08:58:59.840Z,80.00
2019-02-07T09:00:04.314Z,96.00
2019-02-07T09:01:11.443Z,92.00
2019-02-07T09:02:15.373Z,80.00
2019-02-07T09:03:20.865Z,68.00
2019-02-07T09:04:26.368Z,60.00
2019-02-07T09:05:32.883Z,56.00
2019-02-07T09:06:37.399Z,52.00
2019-02-07T09:07:42.875Z,64.00
2019-02-07T09:08:48.405Z,64.00
2019-02-07T09:09:53.910Z,64.00
2019-02-07T09:10:59.442Z,60.00
2019-02-07T09:12:05.926Z,72.00
2019-02-07T09:13:10.446Z,72.00
2019-02-07T09:14:15.938Z,56.00
2019-02-07T09:15:21.427Z,72.00
2019-02-07T09:16:26.935Z,160.00
2019-02-07T09:17:32.484Z,248.00
2019-02-07T09:18:38.977Z,168.00
2019-02-07T09:19:43.496Z,160.00
2019-02-07T09:20:48.993Z,128.00
2019-02-07T09:21:54.507Z,144.00
2019-02-07T09:23:00.012Z,148.00
2019-02-07T09:24:05.536Z,136.00
2019-02-07T09:25:11.988Z,116.00
2019-02-07T09:26:16.564Z,112.00
2019-02-07T09:27:22.040Z,132.00
2019-02-07T09:28:27.553Z,172.00
2019-02-07T09:29:33.094Z,180.00
2019-02-07T09:30:38.576Z,228.00
2019-02-07T09:31:45.083Z,236.00
2019-02-07T09:32:49.586Z,252.00
2019-02-07T09:33:55.085Z,248.00
2019-02-07T09:35:00.554Z,212.00
2019-02-07T09:36:06.118Z,324.00
2019-02-07T09:37:11.619Z,324.00
2019-02-07T09:38:18.111Z,336.00
2019-02-07T09:39:22.604Z,340.00
2019-02-07T09:40:28.141Z,304.00
2019-02-07T09:41:33.637Z,256.00
2019-02-07T09:42:39.123Z,276.00
2019-02-07T09:43:44.646Z,356.00
2019-02-07T09:44:51.155Z,368.00
2019-02-07T09:45:55.679Z,284.00
2019-02-07T09:47:01.278Z,312.00
2019-02-07T09:48:06.657Z,360.00
2019-02-07T09:49:12.181Z,324.00
2019-02-07T09:50:17.706Z,304.00
2019-02-07T09:51:24.258Z,288.00
2019-02-07T09:52:28.730Z,276.00
2019-02-07T09:53:34.241Z,300.00
2019-02-07T09:54:39.754Z,360.00
2019-02-07T09:55:45.233Z,484.00
2019-02-07T09:56:50.752Z,648.00
2019-02-07T09:57:57.267Z,628.00
2019-02-07T09:59:03.428Z,612.00
2019-02-07T10:00:07.298Z,632.00
2019-02-07T10:01:12.754Z,600.00
2019-02-07T10:02:18.295Z,584.00
2019-02-07T10:03:23.804Z,544.00
2019-02-07T10:04:30.319Z,500.00
2019-02-07T10:05:34.837Z,476.00
2019-02-07T10:06:40.311Z,432.00
2019-02-07T10:07:45.846Z,424.00
2019-02-07T10:08:51.338Z,392.00
2019-02-07T10:09:56.841Z,392.00
2019-02-07T10:11:03.402Z,420.00
2019-02-07T10:12:07.842Z,420.00
2019-02-07T10:13:13.384Z,432.00
2019-02-07T10:14:18.891Z,364.00
2019-02-07T10:15:24.424Z,336.00
2019-02-07T10:16:29.892Z,308.00
2019-02-07T10:17:36.450Z,344.00
2019-02-07T10:18:40.930Z,360.00
2019-02-07T10:19:46.427Z,388.00
2019-02-07T10:20:51.985Z,408.00
2019-02-07T10:21:57.423Z,428.00
2019-02-07T10:23:02.928Z,480.00
2019-02-07T10:24:09.506Z,500.00
2019-02-07T10:25:13.992Z,500.00
2019-02-07T10:26:19.500Z,408.00
2019-02-07T10:27:25.005Z,508.00
2019-02-07T10:28:30.470Z,540.00
2019-02-07T10:29:36.035Z,592.00
2019-02-07T10:30:42.531Z,544.00
2019-02-07T10:31:47.039Z,748.00
2019-02-07T10:32:52.552Z,768.00
2019-02-07T10:33:58.059Z,592.00
2019-02-07T10:35:03.564Z,400.00
2019-02-07T10:36:09.077Z,396.00
2019-02-07T10:37:15.577Z,704.00
2019-02-07T10:38:20.107Z,732.00
2019-02-07T10:39:25.604Z,812.00
2019-02-07T10:40:31.106Z,908.00
2019-02-07T10:41:36.616Z,900.00
2019-02-07T10:42:42.145Z,852.00
2019-02-07T10:43:48.673Z,748.00
2019-02-07T10:44:53.145Z,676.00
2019-02-07T10:45:58.657Z,660.00
2019-02-07T10:47:04.180Z,720.00
2019-02-07T10:48:09.705Z,872.00
2019-02-07T10:49:15.185Z,784.00
2019-02-07T10:50:21.715Z,796.00
2019-02-07T10:51:26.235Z,596.00
2019-02-07T10:52:31.732Z,524.00
2019-02-07T10:53:37.239Z,652.00
2019-02-07T10:54:42.751Z,800.00
2019-02-07T10:55:48.269Z,880.00
2019-02-07T10:56:54.781Z,924.00
2019-02-07T10:57:59.281Z,940.00
2019-02-07T10:59:04.767Z,824.00
2019-02-07T11:00:10.324Z,784.00
2019-02-07T11:01:15.808Z,780.00
2019-02-07T11:02:21.315Z,800.00
2019-02-07T11:03:27.830Z,652.00
2019-02-07T11:04:32.340Z,512.00
2019-02-07T11:05:37.840Z,596.00
2019-02-07T11:06:43.344Z,660.00
2019-02-07T11:07:48.870Z,648.00
2019-02-07T11:08:54.388Z,972.00
2019-02-07T11:10:00.895Z,792.00
2019-02-07T11:11:05.405Z,936.00
2019-02-07T11:12:10.893Z,1040.00
2019-02-07T11:13:16.392Z,852.00
2019-02-07T11:14:21.916Z,1044.00
2019-02-07T11:15:27.416Z,1072.00
2019-02-07T11:16:33.933Z,888.00
2019-02-07T11:17:38.441Z,884.00
2019-02-07T11:18:54.081Z,832.00
2019-02-07T11:19:49.473Z,1056.00
2019-02-07T11:20:54.974Z,1140.00
2019-02-07T11:22:00.502Z,884.00
2019-02-07T11:23:07.014Z,912.00
2019-02-07T11:24:11.513Z,892.00
2019-02-07T11:25:17.013Z,932.00
2019-02-07T11:26:22.521Z,1024.00
2019-02-07T11:27:28.030Z,904.00
2019-02-07T11:28:33.554Z,912.00
2019-02-07T11:29:40.055Z,992.00
2019-02-07T11:30:44.573Z,884.00
2019-02-07T11:31:50.182Z,776.00
2019-02-07T11:32:55.588Z,852.00
2019-02-07T11:34:01.093Z,724.00
2019-02-07T11:35:06.631Z,764.00
2019-02-07T11:36:13.114Z,712.00
2019-02-07T11:37:17.619Z,960.00
2019-02-07T11:38:23.140Z,1024.00
2019-02-07T11:39:29.765Z,1004.00
2019-02-07T11:40:34.187Z,1012.00
2019-02-07T11:41:39.688Z,996.00
2019-02-07T11:42:46.193Z,1104.00
2019-02-07T11:43:50.693Z,1032.00
2019-02-07T11:44:56.189Z,1000.00
2019-02-07T11:46:01.719Z,944.00
2019-02-07T11:47:07.213Z,944.00
2019-02-07T11:48:12.763Z,912.00
2019-02-07T11:49:19.252Z,904.00
2019-02-07T11:50:23.749Z,940.00
2019-02-07T11:51:29.259Z,912.00
2019-02-07T11:52:34.776Z,936.00
2019-02-07T11:53:40.296Z,1004.00
2019-02-07T11:54:45.872Z,1028.00
2019-02-07T11:55:52.346Z,988.00
2019-02-07T11:56:56.820Z,972.00
2019-02-07T11:58:02.310Z,824.00
2019-02-07T11:59:07.858Z,1024.00
2019-02-07T12:00:13.333Z,1120.00
2019-02-07T12:01:18.865Z,1024.00
2019-02-07T12:02:25.384Z,836.00
2019-02-07T12:03:29.869Z,1020.00
2019-02-07T12:04:35.382Z,1140.00
2019-02-07T12:05:40.903Z,992.00
2019-02-07T12:06:46.417Z,1132.00
2019-02-07T12:07:51.939Z,1128.00
2019-02-07T12:08:58.435Z,1048.00
2019-02-07T12:10:02.926Z,1220.00
2019-02-07T12:11:08.445Z,1260.00
2019-02-07T12:12:13.955Z,1340.00
2019-02-07T12:13:19.452Z,1340.00
2019-02-07T12:14:24.978Z,1196.00
2019-02-07T12:15:31.491Z,1168.00
2019-02-07T12:16:35.984Z,1148.00
2019-02-07T12:17:41.463Z,1172.00
2019-02-07T12:18:47.004Z,1312.00
2019-02-07T12:19:52.550Z,1152.00
2019-02-07T12:20:58.031Z,1084.00
2019-02-07T12:22:04.553Z,944.00
2019-02-07T12:23:09.057Z,648.00
2019-02-07T12:24:14.570Z,692.00
2019-02-07T12:25:20.069Z,640.00
2019-02-07T12:26:25.594Z,788.00
2019-02-07T12:27:31.101Z,960.00
2019-02-07T12:28:37.618Z,604.00
2019-02-07T12:29:42.113Z,956.00
2019-02-07T12:30:47.652Z,884.00
2019-02-07T12:31:53.151Z,924.00
2019-02-07T12:32:58.641Z,1156.00
2019-02-07T12:34:04.166Z,968.00
2019-02-07T12:35:10.678Z,1188.00
2019-02-07T12:36:15.219Z,1184.00
2019-02-07T12:37:20.730Z,1208.00
2019-02-07T12:38:26.204Z,1320.00
2019-02-07T12:39:31.724Z,1560.00
2019-02-07T12:40:37.241Z,1500.00
2019-02-07T12:41:43.764Z,1156.00
2019-02-07T12:42:48.242Z,2776.00
2019-02-07T12:43:53.750Z,4608.00
2019-02-07T12:44:59.265Z,6292.00
2019-02-07T12:46:04.799Z,1452.00
2019-02-07T12:47:10.281Z,1004.00
2019-02-07T12:48:16.816Z,1304.00
2019-02-07T12:49:28.883Z,3416.00
2019-02-07T12:50:26.825Z,1064.00
2019-02-07T12:51:32.332Z,3264.00
2019-02-07T12:52:37.870Z,1912.00
2019-02-07T12:53:43.360Z,3388.00
2019-02-07T12:54:49.883Z,1136.00
2019-02-07T12:55:54.387Z,8484.00
2019-02-07T12:56:59.911Z,2072.00
2019-02-07T12:58:05.392Z,11580.00
2019-02-07T12:59:10.893Z,2492.00
2019-02-07T13:00:16.412Z,9652.00
2019-02-07T13:01:22.950Z,6760.00
2019-02-07T13:02:27.448Z,9652.00
2019-02-07T13:03:32.952Z,9540.00
2019-02-07T13:04:38.447Z,3228.00
2019-02-07T13:05:43.980Z,572.00
2019-02-07T13:06:49.459Z,3068.00
2019-02-07T13:07:56.016Z,792.00
2019-02-07T13:09:00.526Z,2048.00
2019-02-07T13:10:06.026Z,9256.00
2019-02-07T13:11:11.542Z,6480.00
2019-02-07T13:12:17.085Z,1132.00
2019-02-07T13:13:22.615Z,8724.00
2019-02-07T13:14:29.100Z,1184.00
2019-02-07T13:15:33.633Z,528.00
2019-02-07T13:16:39.143Z,744.00
2019-02-07T13:17:44.619Z,668.00
2019-02-07T13:18:50.155Z,728.00
2019-02-07T13:19:55.645Z,4232.00
2019-02-07T13:21:02.191Z,1840.00
2019-02-07T13:22:06.706Z,1604.00
2019-02-07T13:23:12.202Z,1356.00
2019-02-07T13:24:17.706Z,536.00
2019-02-07T13:25:23.237Z,780.00
2019-02-07T13:26:28.755Z,1572.00
2019-02-07T13:27:35.241Z,832.00
2019-02-07T13:28:39.764Z,7180.00
2019-02-07T13:29:45.275Z,5408.00
2019-02-07T13:30:50.842Z,6224.00
2019-02-07T13:31:56.289Z,5312.00
2019-02-07T13:33:01.872Z,4524.00
2019-02-07T13:34:08.333Z,576.00
2019-02-07T13:35:12.864Z,492.00
2019-02-07T13:36:18.379Z,672.00
2019-02-07T13:37:23.876Z,7028.00
2019-02-07T13:38:29.330Z,1664.00
2019-02-07T13:39:37.437Z,1904.00
2019-02-07T13:40:41.409Z,2388.00
2019-02-07T13:41:45.897Z,10832.00
2019-02-07T13:42:51.419Z,11316.00
2019-02-07T13:43:56.918Z,8288.00
2019-02-07T13:45:02.452Z,9020.00
2019-02-07T13:46:07.956Z,11216.00
2019-02-07T13:47:14.442Z,11860.00
2019-02-07T13:48:18.969Z,5680.00
2019-02-07T13:49:24.497Z,644.00
2019-02-07T13:50:32.535Z,744.00
2019-02-07T13:51:35.539Z,5168.00
2019-02-07T13:52:41.050Z,776.00
2019-02-07T13:53:47.572Z,756.00
2019-02-07T13:54:52.064Z,1736.00
2019-02-07T13:55:57.573Z,1224.00
2019-02-07T13:57:03.088Z,984.00
2019-02-07T13:58:08.591Z,3360.00
2019-02-07T13:59:14.101Z,1472.00
2019-02-07T14:00:23.296Z,2188.00
2019-02-07T14:01:25.134Z,1892.00